Time;durP1;ratioP1;P1;durP2;ratioP2;P2;SDS_P1;SDS_P2;PMS_P1;PMS_P2;Temp;Humidity;BMP_temperature;BMP_pressure;BME280_temperature;BME280_humidity;BME280_pressure;Samples;Min_cycle;Max_cycle;Signal;HPM_P1;HPM_P2
2021/07/02 00:01:21;;;;;;;83.03;51.90;;;;;;;;;;5089167;28;20521;-52
2021/07/02 00:03:49;;;;;;;46.10;26.60;;;;;;;;;;5085333;28;20532;-54
2021/07/02 00:06:34;;;;;;;78.23;53.30;;;;;;;;;;5077431;28;20445;-54
2021/07/02 00:09:02;;;;;;;56.07;34.27;;;;;;;;;;5087909;28;20531;-56
2021/07/02 00:11:29;;;;;;;79.97;49.70;;;;;;;;;;5091250;28;20478;-56
2021/07/02 00:14:18;;;;;;;77.43;46.27;;;;;;;;;;5090219;28;20449;-59
2021/07/02 00:16:48;;;;;;;49.37;29.27;;;;;;;;;;5083543;28;20452;-59
2021/07/02 00:19:15;;;;;;;46.93;28.33;;;;;;;;;;5094518;28;20468;-54
2021/07/02 00:21:46;;;;;;;46.77;23.93;;;;;;;;;;5080865;28;20468;-57
2021/07/02 00:24:14;;;;;;;38.43;24.27;;;;;;;;;;5086009;28;20488;-55
2021/07/02 00:26:42;;;;;;;31.90;19.23;;;;;;;;;;5085794;28;20460;-56
2021/07/02 00:29:22;;;;;;;45.37;22.80;;;;;;;;;;5089847;28;20488;-53
2021/07/02 00:31:51;;;;;;;33.10;20.23;;;;;;;;;;5088883;28;20444;-56
2021/07/02 00:34:18;;;;;;;45.03;20.80;;;;;;;;;;5094733;28;20460;-55
2021/07/02 00:36:57;;;;;;;31.63;20.77;;;;;;;;;;5091688;28;20461;-52
2021/07/02 00:39:24;;;;;;;42.63;26.50;;;;;;;;;;5091264;28;20524;-54
2021/07/02 00:41:51;;;;;;;45.33;27.27;;;;;;;;;;5096456;28;20475;-55
2021/07/02 00:44:36;;;;;;;36.57;24.50;;;;;;;;;;5082954;28;20445;-53
2021/07/02 00:47:06;;;;;;;48.20;27.50;;;;;;;;;;5087601;28;20461;-48
2021/07/02 00:49:42;;;;;;;52.07;33.17;;;;;;;;;;5085630;28;20489;-51
2021/07/02 00:52:10;;;;;;;60.73;35.67;;;;;;;;;;5079292;28;20491;-53
2021/07/02 00:54:38;;;;;;;44.93;28.00;;;;;;;;;;5084576;28;20498;-54
2021/07/02 00:57:23;;;;;;;52.77;32.90;;;;;;;;;;5083504;28;20464;-57
2021/07/02 00:59:50;;;;;;;63.40;35.93;;;;;;;;;;5078248;28;20478;-52
2021/07/02 01:02:19;;;;;;;46.00;28.37;;;;;;;;;;5090200;28;20457;-57
2021/07/02 01:04:46;;;;;;;46.60;27.83;;;;;;;;;;5091564;28;20519;-58
2021/07/02 01:07:14;;;;;;;45.10;24.80;;;;;;;;;;5080144;28;20509;-56
2021/07/02 01:09:43;;;;;;;57.67;30.03;;;;;;;;;;5087100;28;20498;-54
2021/07/02 01:12:34;;;;;;;39.73;23.50;;;;;;;;;;5102017;28;20523;-59
2021/07/02 01:15:02;;;;;;;45.17;24.93;;;;;;;;;;5089721;28;20472;-57
2021/07/02 01:17:31;;;;;;;51.03;28.83;;;;;;;;;;5079235;28;20469;-56
2021/07/02 01:20:31;;;;;;;45.47;26.67;;;;;;;;;;5082681;28;20576;-55
2021/07/02 01:23:00;;;;;;;55.93;31.83;;;;;;;;;;5081618;28;20532;-52
2021/07/02 01:25:30;;;;;;;69.37;45.03;;;;;;;;;;5084415;28;20494;-56
2021/07/02 01:31:01;;;;;;;46.10;25.80;;;;;;;;;;5084800;28;20470;-53
2021/07/02 01:33:28;;;;;;;37.73;23.50;;;;;;;;;;5082479;28;20484;-52
2021/07/02 01:35:56;;;;;;;31.17;19.10;;;;;;;;;;5092018;28;20484;-55
2021/07/02 01:38:25;;;;;;;32.13;17.50;;;;;;;;;;5094589;28;20498;-57
2021/07/02 01:40:52;;;;;;;34.77;19.57;;;;;;;;;;5084752;28;20499;-52
2021/07/02 01:43:20;;;;;;;28.40;17.17;;;;;;;;;;5087869;28;20464;-55
2021/07/02 01:45:47;;;;;;;28.53;17.90;;;;;;;;;;5090117;28;20497;-51
2021/07/02 01:48:14;;;;;;;36.40;17.47;;;;;;;;;;5098290;28;20456;-54
2021/07/02 01:50:42;;;;;;;37.30;18.80;;;;;;;;;;5095280;28;20448;-53
2021/07/02 01:53:09;;;;;;;34.60;18.77;;;;;;;;;;5082133;28;20469;-52
2021/07/02 01:55:44;;;;;;;34.70;19.13;;;;;;;;;;5090479;28;20545;-50
2021/07/02 01:58:12;;;;;;;28.00;17.70;;;;;;;;;;5086428;28;20452;-57
2021/07/02 02:00:39;;;;;;;30.87;17.47;;;;;;;;;;5076650;28;20503;-59
2021/07/02 02:03:13;;;;;;;33.27;20.00;;;;;;;;;;5083146;28;20469;-51
2021/07/02 02:05:41;;;;;;;30.93;16.47;;;;;;;;;;5078523;28;20452;-55
2021/07/02 02:08:08;;;;;;;26.33;16.87;;;;;;;;;;5090292;28;20495;-52
2021/07/02 02:10:38;;;;;;;31.23;16.97;;;;;;;;;;5077211;28;20480;-55
2021/07/02 02:13:08;;;;;;;28.60;16.07;;;;;;;;;;5076814;28;20461;-54
2021/07/02 02:15:35;;;;;;;34.83;17.60;;;;;;;;;;5080085;28;20484;-53
2021/07/02 02:18:02;;;;;;;30.70;16.87;;;;;;;;;;5092933;28;20517;-52
2021/07/02 02:20:30;;;;;;;32.07;18.10;;;;;;;;;;5084063;28;20477;-54
2021/07/02 02:22:57;;;;;;;27.90;16.40;;;;;;;;;;5086968;28;20784;-56
2021/07/02 02:25:24;;;;;;;30.07;17.40;;;;;;;;;;5084964;28;20460;-54
2021/07/02 02:27:52;;;;;;;33.73;17.73;;;;;;;;;;5084434;28;20510;-51
2021/07/02 02:30:41;;;;;;;27.33;16.60;;;;;;;;;;5089537;28;20483;-56
2021/07/02 02:33:11;;;;;;;28.33;17.27;;;;;;;;;;5089823;28;20460;-58
2021/07/02 02:35:39;;;;;;;32.83;17.53;;;;;;;;;;5085078;28;20723;-54
2021/07/02 02:38:09;;;;;;;33.43;17.77;;;;;;;;;;5085957;28;20479;-55
2021/07/02 02:40:37;;;;;;;25.73;14.77;;;;;;;;;;5089418;28;20531;-54
2021/07/02 02:43:04;;;;;;;28.83;17.73;;;;;;;;;;5092072;28;20883;-54
2021/07/02 02:45:32;;;;;;;33.70;16.67;;;;;;;;;;5086891;28;20478;-52
2021/07/02 02:48:00;;;;;;;31.10;16.90;;;;;;;;;;5098936;28;20460;-58
2021/07/02 02:50:29;;;;;;;32.60;16.00;;;;;;;;;;5087576;28;20488;-57
2021/07/02 02:52:57;;;;;;;24.50;15.20;;;;;;;;;;5083155;28;20469;-51
2021/07/02 02:55:25;;;;;;;31.03;18.20;;;;;;;;;;5078611;28;20501;-55
2021/07/02 02:57:55;;;;;;;27.50;16.03;;;;;;;;;;5084616;28;20460;-56
2021/07/02 03:00:23;;;;;;;25.40;15.70;;;;;;;;;;5081787;28;20452;-52
2021/07/02 03:02:51;;;;;;;29.80;16.83;;;;;;;;;;5086545;28;20538;-57
2021/07/02 03:05:29;;;;;;;31.90;16.20;;;;;;;;;;5099711;28;20456;-56
2021/07/02 03:07:57;;;;;;;26.40;15.97;;;;;;;;;;5077429;28;20465;-58
2021/07/02 03:10:25;;;;;;;32.83;16.20;;;;;;;;;;5090485;28;20476;-53
2021/07/02 03:13:14;;;;;;;26.20;15.50;;;;;;;;;;5087099;28;20487;-53
2021/07/02 03:15:41;;;;;;;28.47;15.10;;;;;;;;;;5080276;28;20518;-59
2021/07/02 03:18:15;;;;;;;37.83;16.03;;;;;;;;;;5077447;28;20465;-56
2021/07/02 03:20:56;;;;;;;23.60;14.03;;;;;;;;;;5088165;28;20465;-59
2021/07/02 03:23:23;;;;;;;23.43;14.20;;;;;;;;;;5090447;28;20549;-51
2021/07/02 03:25:51;;;;;;;20.97;14.50;;;;;;;;;;5056874;28;20449;-57
2021/07/02 03:28:20;;;;;;;23.97;14.50;;;;;;;;;;5088626;28;20478;-53
2021/07/02 03:30:49;;;;;;;23.30;14.07;;;;;;;;;;5094663;28;20480;-53
2021/07/02 03:33:17;;;;;;;25.93;14.43;;;;;;;;;;5101315;28;20450;-52
2021/07/02 03:35:48;;;;;;;27.63;14.03;;;;;;;;;;5106949;28;20456;-53
2021/07/02 03:38:17;;;;;;;27.90;15.33;;;;;;;;;;5095615;28;20440;-56
2021/07/02 03:40:46;;;;;;;39.77;24.87;;;;;;;;;;5070496;28;20456;-57
2021/07/02 03:43:26;;;;;;;30.13;18.13;;;;;;;;;;5086149;28;20459;-53
2021/07/02 03:45:53;;;;;;;22.93;14.17;;;;;;;;;;5097911;28;20526;-55
2021/07/02 03:48:21;;;;;;;24.63;13.23;;;;;;;;;;5098140;28;20416;-54
2021/07/02 03:50:56;;;;;;;26.00;13.30;;;;;;;;;;5076646;28;20492;-55
2021/07/02 03:53:24;;;;;;;24.97;13.97;;;;;;;;;;5091610;28;20579;-55
2021/07/02 03:55:51;;;;;;;24.00;13.60;;;;;;;;;;5095897;28;20464;-55
2021/07/02 03:58:28;;;;;;;22.63;12.93;;;;;;;;;;5094884;28;20618;-51
2021/07/02 04:00:55;;;;;;;20.17;12.87;;;;;;;;;;5077071;28;20456;-53
2021/07/02 04:03:23;;;;;;;21.97;12.70;;;;;;;;;;5077449;28;20475;-49
2021/07/02 04:08:55;;;;;;;24.13;13.07;;;;;;;;;;5081826;28;20435;-51
2021/07/02 04:11:24;;;;;;;29.67;14.47;;;;;;;;;;5098302;28;20440;-58
2021/07/02 04:13:59;;;;;;;30.40;12.87;;;;;;;;;;5097576;28;20440;-61
2021/07/02 04:16:26;;;;;;;20.30;11.47;;;;;;;;;;5097151;28;20493;-55
2021/07/02 04:18:56;;;;;;;19.50;12.23;;;;;;;;;;5097440;28;20444;-56
2021/07/02 04:21:23;;;;;;;24.60;11.80;;;;;;;;;;5098033;28;20467;-57
2021/07/02 04:23:51;;;;;;;19.70;11.13;;;;;;;;;;5097601;28;20447;-53
2021/07/02 04:26:31;;;;;;;21.93;11.87;;;;;;;;;;5096591;28;20621;-61
2021/07/02 04:28:58;;;;;;;18.23;12.03;;;;;;;;;;5077721;28;20821;-56
2021/07/02 04:31:25;;;;;;;23.80;12.10;;;;;;;;;;5077509;28;20488;-60
2021/07/02 04:33:58;;;;;;;16.97;11.13;;;;;;;;;;5082742;28;20503;-56
2021/07/02 04:36:26;;;;;;;24.53;14.80;;;;;;;;;;5095604;28;20503;-53
2021/07/02 04:38:55;;;;;;;21.93;12.33;;;;;;;;;;5091008;28;20467;-58
2021/07/02 04:44:27;;;;;;;23.93;13.73;;;;;;;;;;5089640;28;20499;-56
2021/07/02 04:47:18;;;;;;;21.13;11.90;;;;;;;;;;5077196;28;20487;-59
2021/07/02 04:49:46;;;;;;;26.27;12.60;;;;;;;;;;5076384;28;20507;-55
2021/07/02 04:52:13;;;;;;;22.57;13.00;;;;;;;;;;5098595;28;20483;-51
2021/07/02 04:54:47;;;;;;;22.90;14.20;;;;;;;;;;5117329;28;20447;-56
2021/07/02 04:57:15;;;;;;;20.33;11.47;;;;;;;;;;5104205;28;20483;-50
2021/07/02 04:59:46;;;;;;;16.90;11.33;;;;;;;;;;5097043;28;20440;-55
2021/07/02 05:02:17;;;;;;;16.67;10.63;;;;;;;;;;5097195;28;20476;-56
2021/07/02 05:04:45;;;;;;;18.90;12.00;;;;;;;;;;5087200;28;20487;-56
2021/07/02 05:07:14;;;;;;;20.77;11.53;;;;;;;;;;5085391;28;20456;-59
2021/07/02 05:09:42;;;;;;;19.73;11.70;;;;;;;;;;5095791;28;20464;-57
2021/07/02 05:12:11;;;;;;;23.30;12.37;;;;;;;;;;5096425;28;20456;-57
2021/07/02 05:14:48;;;;;;;20.67;12.60;;;;;;;;;;5096561;28;20464;-58
2021/07/02 05:20:21;;;;;;;24.03;15.97;;;;;;;;;;5083256;28;20461;-54
2021/07/02 05:22:48;;;;;;;33.63;14.03;;;;;;;;;;5100758;28;20467;-54
2021/07/02 05:25:22;;;;;;;22.73;13.10;;;;;;;;;;5104010;28;20483;-58
2021/07/02 05:27:49;;;;;;;20.30;13.73;;;;;;;;;;5091771;28;20449;-59
2021/07/02 05:30:17;;;;;;;22.20;14.90;;;;;;;;;;5095018;28;20536;-60
2021/07/02 05:35:12;;;;;;;21.90;12.63;;;;;;;;;;5093168;28;20471;-56
2021/07/02 05:37:45;;;;;;;21.17;12.80;;;;;;;;;;5096000;28;20255;-58
2021/07/02 05:43:21;;;;;;;22.30;14.03;;;;;;;;;;5078157;28;20411;-56
2021/07/02 05:45:54;;;;;;;24.73;13.13;;;;;;;;;;5094673;28;20657;-55
2021/07/02 05:51:25;;;;;;;17.27;11.60;;;;;;;;;;5089556;28;21055;-57
2021/07/02 05:53:53;;;;;;;20.40;12.97;;;;;;;;;;5091970;28;20460;-60
2021/07/02 05:56:27;;;;;;;24.63;12.47;;;;;;;;;;5090597;28;20544;-56
2021/07/02 05:58:57;;;;;;;16.10;11.13;;;;;;;;;;5080354;28;20449;-58
2021/07/02 06:01:30;;;;;;;17.93;12.10;;;;;;;;;;5075754;28;20449;-55
2021/07/02 06:04:00;;;;;;;22.73;13.00;;;;;;;;;;5093535;28;20448;-61
2021/07/02 06:06:27;;;;;;;22.10;10.40;;;;;;;;;;5111386;28;20466;-57
2021/07/02 06:09:07;;;;;;;18.57;13.07;;;;;;;;;;5090508;28;20468;-56
2021/07/02 06:11:35;;;;;;;19.80;12.10;;;;;;;;;;5091492;28;20572;-57
2021/07/02 06:14:05;;;;;;;16.30;10.40;;;;;;;;;;5095350;28;20858;-64
2021/07/02 06:16:43;;;;;;;18.20;11.43;;;;;;;;;;5080780;28;20448;-56
2021/07/02 06:19:11;;;;;;;16.20;9.73;;;;;;;;;;5095353;28;20452;-56
2021/07/02 06:21:47;;;;;;;22.03;12.20;;;;;;;;;;5094901;28;20455;-52
2021/07/02 06:24:39;;;;;;;16.07;11.13;;;;;;;;;;5089089;28;20475;-57
2021/07/02 06:27:08;;;;;;;21.00;9.73;;;;;;;;;;5084923;28;20486;-51
2021/07/02 06:29:35;;;;;;;14.40;9.03;;;;;;;;;;5095728;28;20475;-59
2021/07/02 06:32:02;;;;;;;17.60;9.80;;;;;;;;;;5095560;28;20456;-58
2021/07/02 06:34:29;;;;;;;23.07;11.67;;;;;;;;;;5095430;28;20447;-56
2021/07/02 06:37:04;;;;;;;15.63;11.10;;;;;;;;;;5101960;28;20487;-58
2021/07/02 06:39:32;;;;;;;15.80;9.60;;;;;;;;;;5095424;28;20460;-57
2021/07/02 06:41:59;;;;;;;14.67;8.07;;;;;;;;;;5094921;28;20448;-57
2021/07/02 06:44:47;;;;;;;14.07;7.47;;;;;;;;;;5094919;28;20497;-58
2021/07/02 06:47:30;;;;;;;13.20;7.07;;;;;;;;;;5092510;28;20489;-58
2021/07/02 06:49:59;;;;;;;11.93;6.57;;;;;;;;;;5085157;28;20513;-59
2021/07/02 06:52:46;;;;;;;11.90;6.70;;;;;;;;;;5095179;28;20487;-53
2021/07/02 06:55:15;;;;;;;9.73;6.07;;;;;;;;;;5085814;28;20467;-59
2021/07/02 06:57:42;;;;;;;13.63;6.87;;;;;;;;;;5079923;28;20473;-61
2021/07/02 07:00:33;;;;;;;12.40;6.43;;;;;;;;;;5093966;28;20493;-63
2021/07/02 07:03:00;;;;;;;10.80;5.60;;;;;;;;;;5094366;28;20491;-52
2021/07/02 07:05:28;;;;;;;7.60;4.30;;;;;;;;;;5094543;28;20474;-62
2021/07/02 07:07:56;;;;;;;8.23;4.47;;;;;;;;;;5094751;28;20447;-57
2021/07/02 07:10:23;;;;;;;6.80;4.07;;;;;;;;;;5090537;28;20572;-60
2021/07/02 07:12:53;;;;;;;7.47;4.40;;;;;;;;;;5093407;28;20471;-59
2021/07/02 07:15:20;;;;;;;7.13;4.97;;;;;;;;;;5085330;28;20486;-54
2021/07/02 07:17:53;;;;;;;8.67;3.70;;;;;;;;;;5088552;28;20457;-62
2021/07/02 07:20:45;;;;;;;7.47;3.50;;;;;;;;;;5078810;28;20516;-56
2021/07/02 07:23:13;;;;;;;9.33;4.80;;;;;;;;;;5088553;28;20498;-61
2021/07/02 07:25:40;;;;;;;15.27;4.83;;;;;;;;;;5110353;28;20448;-55
2021/07/02 07:28:07;;;;;;;6.33;3.73;;;;;;;;;;5097847;28;20448;-59
2021/07/02 07:30:35;;;;;;;7.70;4.00;;;;;;;;;;5097974;28;20513;-52
2021/07/02 07:33:04;;;;;;;8.97;4.60;;;;;;;;;;5081366;28;20456;-58
2021/07/02 07:35:35;;;;;;;9.70;4.30;;;;;;;;;;5079399;28;20464;-54
2021/07/02 07:38:08;;;;;;;8.60;4.57;;;;;;;;;;5098327;28;20448;-56
2021/07/02 07:40:37;;;;;;;8.07;3.90;;;;;;;;;;5098626;28;20547;-58
2021/07/02 07:43:05;;;;;;;8.37;3.50;;;;;;;;;;5099385;28;20454;-57
2021/07/02 07:45:45;;;;;;;7.57;4.33;;;;;;;;;;5090159;28;20428;-58
2021/07/02 07:48:13;;;;;;;9.50;5.13;;;;;;;;;;5077589;28;20448;-58
2021/07/02 07:50:45;;;;;;;7.57;4.17;;;;;;;;;;5084511;28;20487;-60
2021/07/02 07:53:13;;;;;;;7.93;4.37;;;;;;;;;;5089897;28;20467;-59
2021/07/02 07:55:41;;;;;;;8.20;4.17;;;;;;;;;;5095559;28;20457;-59
2021/07/02 07:58:08;;;;;;;8.60;4.50;;;;;;;;;;5086964;28;20447;-54
2021/07/02 08:00:55;;;;;;;7.80;4.20;;;;;;;;;;5080493;28;20476;-58
2021/07/02 08:03:24;;;;;;;6.67;4.20;;;;;;;;;;5088794;28;20479;-54
2021/07/02 08:05:51;;;;;;;6.33;4.03;;;;;;;;;;5097846;28;20696;-56
2021/07/02 08:08:24;;;;;;;7.50;4.70;;;;;;;;;;5109744;28;20443;-59
2021/07/02 08:10:52;;;;;;;7.57;6.00;;;;;;;;;;5097715;28;20468;-56
2021/07/02 08:13:20;;;;;;;7.40;4.37;;;;;;;;;;5098184;28;20474;-59
2021/07/02 08:16:15;;;;;;;10.63;4.53;;;;;;;;;;5096506;28;20477;-56
2021/07/02 08:18:44;;;;;;;11.53;4.67;;;;;;;;;;5097523;28;20459;-59
2021/07/02 08:21:16;;;;;;;9.80;5.50;;;;;;;;;;5097881;28;20458;-62
2021/07/02 08:26:09;;;;;;;6.60;4.60;;;;;;;;;;5095062;28;20533;-58
2021/07/02 08:31:28;;;;;;;6.83;4.33;;;;;;;;;;5088376;28;20476;-60
2021/07/02 08:34:14;;;;;;;6.07;4.23;;;;;;;;;;5089432;28;20461;-59
2021/07/02 08:36:46;;;;;;;6.37;3.63;;;;;;;;;;5099417;28;20527;-56
2021/07/02 08:39:13;;;;;;;10.63;4.67;;;;;;;;;;5115947;28;20469;-58
2021/07/02 08:41:41;;;;;;;6.53;3.77;;;;;;;;;;5096602;28;20450;-59
2021/07/02 08:44:09;;;;;;;7.23;3.53;;;;;;;;;;5072285;28;20474;-54
2021/07/02 08:46:42;;;;;;;5.27;2.90;;;;;;;;;;5094464;28;20488;-60
2021/07/02 08:49:15;;;;;;;8.80;3.57;;;;;;;;;;5093098;28;20505;-57
2021/07/02 08:51:43;;;;;;;8.17;4.07;;;;;;;;;;5076177;28;20487;-58
2021/07/02 08:54:14;;;;;;;17.43;4.10;;;;;;;;;;5076812;28;20531;-60
2021/07/02 08:56:56;;;;;;;6.53;3.07;;;;;;;;;;5092262;28;20510;-55
2021/07/02 08:59:24;;;;;;;5.90;3.53;;;;;;;;;;5089063;28;20490;-58
2021/07/02 09:01:52;;;;;;;8.00;4.50;;;;;;;;;;5076426;28;20465;-58
2021/07/02 09:04:26;;;;;;;9.37;4.93;;;;;;;;;;5088618;28;20467;-59
2021/07/02 09:07:04;;;;;;;6.50;3.20;;;;;;;;;;5102955;28;20451;-60
2021/07/02 09:09:48;;;;;;;9.50;4.03;;;;;;;;;;5088276;28;20509;-55
2021/07/02 09:12:17;;;;;;;7.10;3.50;;;;;;;;;;5094141;28;20482;-53
2021/07/02 09:15:01;;;;;;;7.63;3.10;;;;;;;;;;5087626;28;20453;-58
2021/07/02 09:17:55;;;;;;;5.83;2.90;;;;;;;;;;5073710;28;20486;-61
2021/07/02 09:20:24;;;;;;;8.20;3.03;;;;;;;;;;5081300;28;20618;-62
2021/07/02 09:23:06;;;;;;;9.30;3.37;;;;;;;;;;5085074;28;20542;-59
2021/07/02 09:26:14;;;;;;;8.17;4.13;;;;;;;;;;5091264;28;20504;-60
2021/07/02 09:28:41;;;;;;;6.87;3.60;;;;;;;;;;5086110;28;20606;-60
2021/07/02 09:31:26;;;;;;;5.90;3.03;;;;;;;;;;5079782;28;20558;-54
2021/07/02 09:33:57;;;;;;;7.27;3.67;;;;;;;;;;5093388;28;20452;-58
2021/07/02 09:36:31;;;;;;;5.37;3.30;;;;;;;;;;5094746;28;20511;-62
2021/07/02 09:39:00;;;;;;;6.43;4.10;;;;;;;;;;5106640;28;20461;-57
2021/07/02 09:41:33;;;;;;;9.33;3.10;;;;;;;;;;5093841;28;20519;-58
2021/07/02 09:44:11;;;;;;;7.90;4.33;;;;;;;;;;5095294;28;20455;-56
2021/07/02 09:46:42;;;;;;;7.80;3.50;;;;;;;;;;5094281;28;20543;-60
2021/07/02 09:49:26;;;;;;;7.73;3.30;;;;;;;;;;5091010;28;20484;-54
2021/07/02 09:52:18;;;;;;;5.87;2.80;;;;;;;;;;5090547;28;20547;-60
2021/07/02 09:55:29;;;;;;;6.10;2.83;;;;;;;;;;5073433;28;20452;-60
2021/07/02 09:58:07;;;;;;;6.67;3.50;;;;;;;;;;5091052;28;20482;-59
2021/07/02 10:00:36;;;;;;;5.93;2.83;;;;;;;;;;5094471;28;20443;-57
2021/07/02 10:03:06;;;;;;;7.50;3.37;;;;;;;;;;5087508;28;20507;-57
2021/07/02 10:05:44;;;;;;;6.47;3.13;;;;;;;;;;5091623;28;20446;-59
2021/07/02 10:08:28;;;;;;;7.60;4.43;;;;;;;;;;5084180;28;20439;-55
2021/07/02 10:11:00;;;;;;;7.17;4.10;;;;;;;;;;5087854;28;20457;-62
2021/07/02 10:13:29;;;;;;;5.80;3.20;;;;;;;;;;5091581;28;20452;-61
2021/07/02 10:15:59;;;;;;;6.63;3.40;;;;;;;;;;5084486;28;20449;-59
2021/07/02 10:18:32;;;;;;;8.30;4.63;;;;;;;;;;5087744;28;20496;-58
2021/07/02 10:21:02;;;;;;;8.10;4.30;;;;;;;;;;5080816;28;20461;-56
2021/07/02 10:23:30;;;;;;;6.63;3.67;;;;;;;;;;5079823;28;20460;-61
2021/07/02 10:25:58;;;;;;;6.30;4.00;;;;;;;;;;5087462;28;20513;-63
2021/07/02 10:28:30;;;;;;;8.37;5.30;;;;;;;;;;5089056;28;20463;-61
2021/07/02 10:31:08;;;;;;;10.50;4.50;;;;;;;;;;5090343;28;20490;-57
2021/07/02 10:33:50;;;;;;;7.60;4.57;;;;;;;;;;5095359;28;20455;-59
2021/07/02 10:36:18;;;;;;;6.17;4.27;;;;;;;;;;5094634;28;20460;-63
2021/07/02 10:38:49;;;;;;;11.47;4.30;;;;;;;;;;5091842;28;20509;-62
2021/07/02 10:41:32;;;;;;;6.60;4.00;;;;;;;;;;5075869;28;20460;-60
2021/07/02 10:44:04;;;;;;;7.37;3.87;;;;;;;;;;5089725;28;20490;-57
2021/07/02 10:46:33;;;;;;;7.67;4.77;;;;;;;;;;5090058;28;20460;-55
2021/07/02 10:49:05;;;;;;;8.93;3.93;;;;;;;;;;5090907;28;20464;-59
2021/07/02 10:51:40;;;;;;;10.27;5.50;;;;;;;;;;5093040;28;20495;-55
2021/07/02 10:54:29;;;;;;;9.83;4.57;;;;;;;;;;5072719;28;20443;-63
2021/07/02 10:57:06;;;;;;;7.50;4.67;;;;;;;;;;5091360;28;20450;-61
2021/07/02 11:00:08;;;;;;;10.47;4.80;;;;;;;;;;5092463;28;20460;-58
2021/07/02 11:02:37;;;;;;;8.63;4.93;;;;;;;;;;5076748;28;20468;-60
2021/07/02 11:05:06;;;;;;;12.73;8.10;;;;;;;;;;5091231;28;20491;-56
2021/07/02 11:08:00;;;;;;;10.53;6.10;;;;;;;;;;5092585;28;20886;-54
2021/07/02 11:10:54;;;;;;;7.77;4.10;;;;;;;;;;5096927;28;20443;-56
2021/07/02 11:13:29;;;;;;;8.00;5.03;;;;;;;;;;5084135;28;20476;-54
2021/07/02 11:16:12;;;;;;;5.40;3.70;;;;;;;;;;5083337;28;20458;-57
2021/07/02 11:19:03;;;;;;;10.70;5.50;;;;;;;;;;5073444;28;20472;-62
2021/07/02 11:21:37;;;;;;;9.60;6.33;;;;;;;;;;5072334;28;20494;-55
2021/07/02 11:24:06;;;;;;;11.73;5.50;;;;;;;;;;5086869;28;20446;-56
2021/07/02 11:26:49;;;;;;;7.60;4.37;;;;;;;;;;5079468;28;20465;-55
2021/07/02 11:29:24;;;;;;;9.70;5.00;;;;;;;;;;5089631;28;20565;-58
2021/07/02 11:31:55;;;;;;;8.00;5.57;;;;;;;;;;5090450;28;20585;-62
2021/07/02 11:34:25;;;;;;;7.83;4.50;;;;;;;;;;5092227;28;20522;-58
2021/07/02 11:40:02;;;;;;;8.67;6.10;;;;;;;;;;5093911;28;20474;-56
2021/07/02 11:42:30;;;;;;;7.37;4.43;;;;;;;;;;5093824;28;20519;-62
2021/07/02 11:45:00;;;;;;;9.00;6.17;;;;;;;;;;5094601;28;20454;-55
2021/07/02 11:47:28;;;;;;;9.23;5.60;;;;;;;;;;5081539;28;20536;-56
2021/07/02 11:49:56;;;;;;;11.43;8.07;;;;;;;;;;5081388;28;20449;-62
2021/07/02 11:52:36;;;;;;;12.60;5.97;;;;;;;;;;5086893;28;20487;-58
2021/07/02 11:55:07;;;;;;;11.33;7.57;;;;;;;;;;5092401;28;20495;-57
2021/07/02 11:57:46;;;;;;;10.23;6.40;;;;;;;;;;5093665;28;20468;-62
2021/07/02 12:00:14;;;;;;;10.17;6.10;;;;;;;;;;5086497;28;20460;-59
2021/07/02 12:02:48;;;;;;;18.60;6.60;;;;;;;;;;5085118;28;20436;-59
2021/07/02 12:05:34;;;;;;;9.53;5.30;;;;;;;;;;5088567;28;20456;-58
2021/07/02 12:08:03;;;;;;;8.00;4.80;;;;;;;;;;5094559;28;20478;-55
2021/07/02 12:10:31;;;;;;;8.57;6.80;;;;;;;;;;5094712;28;20455;-59
2021/07/02 12:13:08;;;;;;;9.43;6.30;;;;;;;;;;5092529;28;20487;-57
2021/07/02 12:15:36;;;;;;;9.00;5.50;;;;;;;;;;5090853;28;20452;-53
2021/07/02 12:18:05;;;;;;;9.63;6.10;;;;;;;;;;5075136;28;20515;-59
2021/07/02 12:20:35;;;;;;;10.87;5.10;;;;;;;;;;5073995;28;20529;-55
2021/07/02 12:23:12;;;;;;;7.93;5.13;;;;;;;;;;5106897;28;20450;-56
2021/07/02 12:25:40;;;;;;;8.57;5.83;;;;;;;;;;5111181;28;20469;-56
2021/07/02 12:28:11;;;;;;;10.23;6.37;;;;;;;;;;5012310;28;2219336;-60
2021/07/02 12:30:40;;;;;;;10.10;5.63;;;;;;;;;;5084336;28;20190;-60
2021/07/02 12:33:17;;;;;;;7.20;5.00;;;;;;;;;;5076654;28;20476;-58
2021/07/02 12:35:47;;;;;;;11.13;7.23;;;;;;;;;;5075964;28;20490;-59
2021/07/02 12:38:17;;;;;;;8.47;6.03;;;;;;;;;;5084593;28;20507;-61
2021/07/02 12:40:44;;;;;;;9.07;6.10;;;;;;;;;;5090231;28;20459;-55
2021/07/02 12:43:12;;;;;;;10.80;6.03;;;;;;;;;;5094678;28;20479;-61
2021/07/02 12:45:48;;;;;;;10.13;5.40;;;;;;;;;;5095148;28;20436;-54
2021/07/02 12:48:15;;;;;;;9.70;6.50;;;;;;;;;;5091929;28;20514;-52
2021/07/02 12:50:45;;;;;;;11.20;7.53;;;;;;;;;;5079096;28;20476;-58
2021/07/02 12:56:11;;;;;;;8.60;5.93;;;;;;;;;;5080989;28;20463;-62
2021/07/02 12:58:38;;;;;;;12.13;7.67;;;;;;;;;;5088847;28;20465;-60
2021/07/02 13:01:17;;;;;;;10.53;6.43;;;;;;;;;;5094487;28;20458;-60
2021/07/02 13:03:46;;;;;;;15.30;8.63;;;;;;;;;;5085157;28;20530;-55
2021/07/02 13:06:15;;;;;;;8.50;5.80;;;;;;;;;;5089304;28;20440;-61
2021/07/02 13:08:58;;;;;;;10.27;5.90;;;;;;;;;;5074927;28;20515;-61
2021/07/02 13:11:26;;;;;;;11.37;5.57;;;;;;;;;;5097057;28;20479;-59
2021/07/02 13:13:53;;;;;;;8.00;5.97;;;;;;;;;;5085651;28;20802;-53
2021/07/02 13:16:23;;;;;;;12.60;6.20;;;;;;;;;;5097657;28;20459;-59
2021/07/02 13:18:54;;;;;;;9.73;6.00;;;;;;;;;;5093910;28;20478;-57
2021/07/02 13:21:29;;;;;;;14.33;6.10;;;;;;;;;;5094909;28;20478;-54
2021/07/02 13:24:22;;;;;;;14.50;6.80;;;;;;;;;;5093796;28;20458;-58
2021/07/02 13:26:57;;;;;;;9.27;6.77;;;;;;;;;;5076523;28;20452;-52
2021/07/02 13:29:31;;;;;;;6.70;5.03;;;;;;;;;;5074834;28;20476;-57
2021/07/02 13:31:59;;;;;;;10.03;6.10;;;;;;;;;;5076685;28;20463;-57
2021/07/02 13:34:27;;;;;;;9.17;5.67;;;;;;;;;;5095235;28;20483;-53
2021/07/02 13:37:00;;;;;;;9.47;6.20;;;;;;;;;;5088179;28;20445;-60
2021/07/02 13:39:36;;;;;;;9.00;6.00;;;;;;;;;;5092034;28;20455;-59
2021/07/02 13:42:25;;;;;;;8.30;6.33;;;;;;;;;;5092118;28;20657;-55
2021/07/02 13:44:59;;;;;;;11.40;6.10;;;;;;;;;;5074713;28;20530;-50
2021/07/02 13:47:32;;;;;;;13.43;7.70;;;;;;;;;;5081933;28;20443;-52
2021/07/02 13:50:03;;;;;;;10.00;6.60;;;;;;;;;;5106117;28;20499;-61
2021/07/02 13:52:30;;;;;;;14.60;9.53;;;;;;;;;;5098396;28;20494;-57
2021/07/02 13:54:59;;;;;;;11.60;7.20;;;;;;;;;;5085699;28;20517;-59
2021/07/02 13:57:49;;;;;;;9.83;6.80;;;;;;;;;;5078923;28;20489;-55
2021/07/02 14:00:21;;;;;;;11.50;7.03;;;;;;;;;;5095307;28;20476;-62
2021/07/02 14:02:52;;;;;;;16.33;7.17;;;;;;;;;;5115398;28;20467;-61
2021/07/02 14:05:25;;;;;;;16.03;7.57;;;;;;;;;;5102606;28;20461;-56
2021/07/02 14:07:52;;;;;;;12.60;7.00;;;;;;;;;;5079574;28;20481;-61
2021/07/02 14:10:24;;;;;;;10.23;5.90;;;;;;;;;;5089588;28;20527;-58
2021/07/02 14:12:53;;;;;;;10.97;6.67;;;;;;;;;;5080998;28;20564;-58
2021/07/02 14:15:22;;;;;;;7.73;5.33;;;;;;;;;;5080834;28;20489;-60
2021/07/02 14:17:52;;;;;;;9.13;6.20;;;;;;;;;;5068404;28;20471;-58
2021/07/02 14:20:21;;;;;;;8.13;6.00;;;;;;;;;;5088490;28;20468;-54
2021/07/02 14:22:51;;;;;;;9.33;6.23;;;;;;;;;;5086324;28;20460;-58
2021/07/02 14:25:20;;;;;;;25.23;7.43;;;;;;;;;;5093990;28;20455;-52
2021/07/02 14:27:51;;;;;;;8.10;6.03;;;;;;;;;;5085072;28;20448;-54
2021/07/02 14:30:18;;;;;;;7.70;6.10;;;;;;;;;;5090363;28;20510;-54
2021/07/02 14:32:46;;;;;;;8.77;5.83;;;;;;;;;;5083019;28;20491;-57
2021/07/02 14:35:26;;;;;;;10.87;7.00;;;;;;;;;;5094051;28;20467;-51
2021/07/02 14:37:54;;;;;;;10.87;6.93;;;;;;;;;;5086605;28;20501;-57
2021/07/02 14:40:21;;;;;;;13.93;8.53;;;;;;;;;;5092844;28;20459;-58
2021/07/02 14:42:52;;;;;;;12.10;6.80;;;;;;;;;;5091388;28;20480;-56
2021/07/02 14:45:19;;;;;;;11.20;7.93;;;;;;;;;;5097013;28;20464;-54
2021/07/02 14:47:46;;;;;;;9.20;6.60;;;;;;;;;;5086612;28;20466;-60
2021/07/02 14:50:20;;;;;;;10.27;7.57;;;;;;;;;;5086770;28;20566;-53
2021/07/02 14:52:48;;;;;;;10.03;7.10;;;;;;;;;;5093798;28;20559;-56
2021/07/02 14:55:15;;;;;;;10.60;7.87;;;;;;;;;;5089187;28;20471;-57
2021/07/02 14:57:43;;;;;;;19.10;9.27;;;;;;;;;;5088900;28;20450;-58
2021/07/02 15:00:19;;;;;;;14.60;10.67;;;;;;;;;;5094624;28;20519;-58
2021/07/02 15:02:49;;;;;;;12.10;8.03;;;;;;;;;;5062274;28;20469;-57
2021/07/02 15:05:17;;;;;;;11.00;8.13;;;;;;;;;;5080963;28;20506;-55
2021/07/02 15:07:45;;;;;;;12.67;8.00;;;;;;;;;;5089684;28;20463;-58
2021/07/02 15:10:22;;;;;;;12.03;8.00;;;;;;;;;;5083866;28;20888;-60
2021/07/02 15:12:59;;;;;;;11.43;8.07;;;;;;;;;;5082988;28;20518;-57
2021/07/02 15:15:29;;;;;;;12.63;7.63;;;;;;;;;;5083282;28;20458;-57
2021/07/02 15:18:01;;;;;;;13.10;7.70;;;;;;;;;;5090480;28;20447;-58
2021/07/02 15:20:42;;;;;;;11.63;8.30;;;;;;;;;;5090280;28;20448;-61
2021/07/02 15:23:10;;;;;;;14.03;8.20;;;;;;;;;;5086559;28;20479;-60
2021/07/02 15:25:39;;;;;;;10.67;8.50;;;;;;;;;;5085666;28;20496;-53
2021/07/02 15:31:29;;;;;;;10.00;6.70;;;;;;;;;;5090138;28;20497;-59
2021/07/02 15:33:58;;;;;;;10.17;7.20;;;;;;;;;;5101043;28;20485;-60